Casbas, Argentina
Current Conditions -  °F | °C
As of 1:00 AM on Sunday 21 Dec 2014 (Local Time) from SAEZ Reporting Station
Overcast Overcast  
Wind Chill: 63°   Ceiling: 1200
Heat Index: 63°   Visibility: 6mi
Dew Point: 59°   Wind: 16mph
Humidity: 88%   Direction: 190°S
Pressure: 29.71"   Gusts: NA
Location:  36.73°S, 62.41°W
Report Text: SAEZ 210400Z 19014KT 140V240 9999 OVC012 17/15 Q1006
Loading
Personal Weather Stations






























Interactive Weather Map New forecast layout! Learn more

10-Day Weather Forecast

Advertisements
Track Severe Weather on mobile